createdAt,value
2018-03-07T00:02:00.341Z,79.00
2018-03-07T00:04:28.173Z,79.10
2018-03-07T00:06:55.982Z,78.70
2018-03-07T00:09:23.717Z,79.40
2018-03-07T00:11:51.503Z,79.30
2018-03-07T00:14:19.996Z,79.50
2018-03-07T00:16:47.698Z,79.50
2018-03-07T00:19:15.450Z,79.40
2018-03-07T00:21:43.189Z,79.40
2018-03-07T00:24:10.880Z,79.50
2018-03-07T00:26:38.643Z,79.40
2018-03-07T00:29:06.345Z,79.60
2018-03-07T00:31:34.193Z,79.10
2018-03-07T00:34:01.980Z,78.60
2018-03-07T00:36:29.656Z,80.00
2018-03-07T00:38:57.465Z,78.60
2018-03-07T00:41:25.230Z,79.30
2018-03-07T00:43:52.934Z,79.60
2018-03-07T00:46:20.960Z,79.80
2018-03-07T00:48:48.643Z,79.60
2018-03-07T00:51:16.388Z,79.60
2018-03-07T00:53:44.120Z,79.30
2018-03-07T00:56:11.858Z,79.10
2018-03-07T00:58:39.531Z,79.40
2018-03-07T01:01:08.132Z,79.80
2018-03-07T01:03:36.661Z,80.30
2018-03-07T01:06:04.360Z,80.30
2018-03-07T01:08:32.873Z,80.10
2018-03-07T01:11:00.668Z,80.10
2018-03-07T01:13:28.404Z,80.50
2018-03-07T01:15:56.153Z,80.60
2018-03-07T01:18:23.857Z,81.80
2018-03-07T01:20:51.673Z,82.00
2018-03-07T01:23:19.476Z,82.50
2018-03-07T01:25:47.307Z,83.50
2018-03-07T01:28:15.062Z,82.10
2018-03-07T01:30:42.795Z,82.60
2018-03-07T01:33:11.279Z,83.50
2018-03-07T01:35:38.997Z,83.40
2018-03-07T01:38:06.685Z,83.80
2018-03-07T01:40:34.346Z,83.40
2018-03-07T01:43:02.058Z,84.70
2018-03-07T01:45:29.764Z,86.50
2018-03-07T01:47:57.422Z,86.10
2018-03-07T01:50:25.092Z,86.30
2018-03-07T01:52:52.791Z,86.30
2018-03-07T01:55:20.502Z,85.00
2018-03-07T01:57:48.196Z,86.30
2018-03-07T02:00:15.842Z,86.00
2018-03-07T02:02:43.509Z,85.90
2018-03-07T02:05:11.245Z,86.30
2018-03-07T02:07:39.729Z,86.80
2018-03-07T02:12:40.338Z,85.80
2018-03-07T02:15:08.066Z,87.40
2018-03-07T02:17:35.800Z,86.90
2018-03-07T02:20:03.531Z,85.70
2018-03-07T02:22:31.196Z,86.60
2018-03-07T02:24:58.858Z,86.50
2018-03-07T02:27:26.505Z,86.20
2018-03-07T02:29:54.181Z,86.30
2018-03-07T02:32:22.671Z,86.60
2018-03-07T02:34:50.346Z,86.50
2018-03-07T02:37:18.032Z,86.30
2018-03-07T02:39:45.708Z,86.30
2018-03-07T02:42:13.382Z,87.00
2018-03-07T02:44:41.106Z,85.80
2018-03-07T02:47:08.812Z,86.30
2018-03-07T02:49:36.521Z,85.70
2018-03-07T02:52:04.158Z,89.20
2018-03-07T02:54:31.803Z,89.20
2018-03-07T02:56:59.484Z,88.60
2018-03-07T02:59:27.139Z,87.60
2018-03-07T03:01:54.796Z,87.10
2018-03-07T03:04:22.464Z,88.80
2018-03-07T03:06:50.108Z,88.10
2018-03-07T03:09:18.601Z,86.70
2018-03-07T03:11:47.055Z,86.00
2018-03-07T03:14:14.748Z,86.00
2018-03-07T03:16:42.441Z,86.40
2018-03-07T03:19:10.106Z,87.30
2018-03-07T03:21:37.893Z,86.10
2018-03-07T03:24:05.560Z,87.50
2018-03-07T03:26:33.297Z,86.80
2018-03-07T03:29:00.986Z,86.30
2018-03-07T03:31:28.626Z,90.00
2018-03-07T03:33:57.072Z,89.60
2018-03-07T03:36:24.737Z,89.60
2018-03-07T03:38:52.397Z,88.60
2018-03-07T03:41:20.120Z,88.10
2018-03-07T03:43:47.800Z,88.80
2018-03-07T03:46:15.469Z,88.50
2018-03-07T03:48:43.142Z,88.30
2018-03-07T03:51:10.813Z,86.60
2018-03-07T03:53:38.467Z,88.80
2018-03-07T03:56:06.133Z,86.30
2018-03-07T03:58:33.851Z,89.90
2018-03-07T04:01:02.335Z,87.60
2018-03-07T04:03:30.009Z,88.30
2018-03-07T04:05:57.657Z,87.30
2018-03-07T04:08:25.313Z,85.40
2018-03-07T04:13:25.890Z,86.10
2018-03-07T04:15:53.568Z,86.80
2018-03-07T04:18:21.299Z,88.00
2018-03-07T04:20:49.019Z,86.50
2018-03-07T04:23:16.711Z,85.50
2018-03-07T04:25:44.436Z,86.90
2018-03-07T04:28:12.202Z,87.10
2018-03-07T04:30:39.944Z,87.40
2018-03-07T04:33:07.696Z,87.60
2018-03-07T04:35:35.411Z,86.30
2018-03-07T04:38:03.147Z,86.60
2018-03-07T04:40:30.842Z,86.10
2018-03-07T04:42:58.551Z,84.20
2018-03-07T04:45:26.314Z,85.20
2018-03-07T04:47:54.836Z,85.40
2018-03-07T04:50:22.531Z,85.40
2018-03-07T04:52:50.319Z,85.30
2018-03-07T04:55:18.023Z,85.80
2018-03-07T04:57:45.751Z,84.90
2018-03-07T05:00:13.497Z,84.90
2018-03-07T05:02:41.322Z,84.00
2018-03-07T05:05:09.045Z,84.50
2018-03-07T05:07:36.791Z,85.20
2018-03-07T05:10:04.606Z,84.70
2018-03-07T05:12:32.326Z,85.10
2018-03-07T05:15:00.805Z,85.40
2018-03-07T05:17:28.577Z,85.40
2018-03-07T05:19:56.278Z,85.10
2018-03-07T05:22:24.005Z,84.90
2018-03-07T05:24:51.726Z,84.60
2018-03-07T05:27:19.409Z,84.90
2018-03-07T05:29:47.132Z,85.10
2018-03-07T05:32:14.843Z,85.60
2018-03-07T05:34:42.628Z,85.00
2018-03-07T05:37:10.306Z,84.00
2018-03-07T05:39:38.093Z,84.70
2018-03-07T05:42:06.652Z,85.10
2018-03-07T05:44:35.188Z,83.80
2018-03-07T05:47:02.909Z,83.70
2018-03-07T05:49:31.542Z,84.60
2018-03-07T05:51:59.610Z,84.50
2018-03-07T05:54:27.331Z,85.10
2018-03-07T05:56:55.058Z,84.50
2018-03-07T05:59:24.296Z,86.30
2018-03-07T06:01:52.113Z,85.60
2018-03-07T06:04:19.936Z,84.10
2018-03-07T06:06:47.751Z,85.60
2018-03-07T06:09:15.491Z,85.40
2018-03-07T06:11:43.246Z,85.70
2018-03-07T06:14:11.006Z,85.90
2018-03-07T06:16:38.770Z,87.20
2018-03-07T06:19:06.562Z,84.70
2018-03-07T06:21:34.362Z,84.50
2018-03-07T06:24:02.944Z,85.00
2018-03-07T06:26:31.494Z,84.90
2018-03-07T06:28:59.262Z,84.80
2018-03-07T06:31:27.094Z,85.40
2018-03-07T06:33:54.785Z,84.70
2018-03-07T06:36:22.588Z,86.10
2018-03-07T06:38:50.313Z,86.20
2018-03-07T06:41:18.149Z,84.80
2018-03-07T06:43:46.702Z,85.40
2018-03-07T06:46:14.418Z,85.40
2018-03-07T06:48:42.267Z,85.30
2018-03-07T06:51:10.356Z,84.60
2018-03-07T06:53:38.128Z,86.40
2018-03-07T06:56:05.878Z,86.30
2018-03-07T06:58:33.666Z,86.30
2018-03-07T07:01:01.488Z,86.30
2018-03-07T07:03:29.232Z,86.80
2018-03-07T07:05:57.589Z,86.30
2018-03-07T07:08:26.080Z,87.30
2018-03-07T07:10:53.918Z,87.20
2018-03-07T07:13:22.124Z,87.50
2018-03-07T07:15:49.949Z,87.00
2018-03-07T07:18:17.738Z,87.50
2018-03-07T07:20:46.331Z,88.60
2018-03-07T07:23:14.843Z,88.30
2018-03-07T07:25:42.674Z,88.30
2018-03-07T07:28:11.269Z,89.20
2018-03-07T07:30:38.988Z,89.30
2018-03-07T07:33:06.756Z,90.20
2018-03-07T07:35:34.521Z,89.80
2018-03-07T07:38:02.441Z,90.30
2018-03-07T07:40:30.205Z,90.70
2018-03-07T07:42:57.927Z,91.10
2018-03-07T07:45:25.668Z,91.70
2018-03-07T07:47:54.368Z,92.50
2018-03-07T07:50:28.584Z,92.50
2018-03-07T07:52:58.273Z,92.10
2018-03-07T07:55:27.665Z,91.50
2018-03-07T07:57:58.868Z,91.50
2018-03-07T08:00:27.892Z,92.20
2018-03-07T08:02:57.326Z,91.60
2018-03-07T08:05:25.290Z,91.40
2018-03-07T08:07:53.019Z,91.30
2018-03-07T08:10:20.781Z,91.60
2018-03-07T08:12:48.496Z,91.10
2018-03-07T08:15:16.403Z,90.70
2018-03-07T08:17:44.910Z,90.10
2018-03-07T08:20:13.879Z,90.00
2018-03-07T08:22:43.546Z,90.00
2018-03-07T08:25:12.602Z,89.90
2018-03-07T08:27:41.521Z,88.30
2018-03-07T08:30:10.626Z,89.60
2018-03-07T08:32:40.266Z,89.60
2018-03-07T08:35:10.399Z,89.80
2018-03-07T08:37:39.430Z,88.10
2018-03-07T08:40:10.584Z,88.00
2018-03-07T08:42:39.975Z,87.70
2018-03-07T08:45:07.733Z,87.10
2018-03-07T08:47:35.680Z,87.20
2018-03-07T08:50:03.639Z,86.70
2018-03-07T08:52:31.449Z,87.10
2018-03-07T08:54:59.290Z,86.40
2018-03-07T08:57:27.142Z,85.20
2018-03-07T08:59:57.822Z,84.10
2018-03-07T09:02:25.667Z,84.10
2018-03-07T09:04:53.544Z,84.60
2018-03-07T09:07:21.336Z,82.50
2018-03-07T09:09:49.100Z,79.40
2018-03-07T09:12:16.869Z,79.30
2018-03-07T09:14:44.708Z,79.40
2018-03-07T09:17:12.466Z,78.50
2018-03-07T09:19:42.181Z,77.30
2018-03-07T09:22:17.458Z,72.80
2018-03-07T09:24:45.274Z,75.50
2018-03-07T09:27:14.151Z,74.90
2018-03-07T09:29:41.985Z,74.60
2018-03-07T09:32:10.532Z,71.30
2018-03-07T09:34:43.642Z,73.80
2018-03-07T09:37:12.630Z,69.60
2018-03-07T09:39:40.377Z,69.50
2018-03-07T09:42:08.094Z,68.70
2018-03-07T09:44:35.919Z,69.00
2018-03-07T09:47:04.033Z,68.60
2018-03-07T09:49:33.042Z,65.20
2018-03-07T09:54:53.851Z,62.50
2018-03-07T09:57:28.025Z,62.50
2018-03-07T09:59:57.331Z,62.40
2018-03-07T10:05:27.378Z,60.70
2018-03-07T10:08:48.856Z,57.30
2018-03-07T10:11:17.124Z,57.30
2018-03-07T10:13:51.731Z,54.80
2018-03-07T10:18:57.870Z,55.40
2018-03-07T10:21:25.807Z,54.30
2018-03-07T10:26:37.039Z,52.20
2018-03-07T10:29:06.662Z,54.40
2018-03-07T10:31:48.571Z,54.50
2018-03-07T10:36:59.354Z,50.30
2018-03-07T10:39:29.063Z,52.80
2018-03-07T10:41:58.141Z,52.70
2018-03-07T10:44:26.964Z,56.40
2018-03-07T10:46:54.711Z,56.40
2018-03-07T10:49:23.750Z,54.30
2018-03-07T10:51:51.477Z,54.10
2018-03-07T10:56:57.757Z,53.10
2018-03-07T10:59:25.549Z,54.60
2018-03-07T11:01:53.515Z,53.80
2018-03-07T11:04:23.643Z,53.60
2018-03-07T11:06:55.694Z,53.50
2018-03-07T11:09:23.492Z,55.10
2018-03-07T11:11:51.324Z,55.60
2018-03-07T11:14:19.073Z,56.60
2018-03-07T11:16:47.229Z,56.30
2018-03-07T11:19:15.774Z,53.30
2018-03-07T11:21:43.773Z,53.40
2018-03-07T11:24:11.576Z,53.40
2018-03-07T11:26:41.198Z,53.40
2018-03-07T11:29:13.437Z,54.60
2018-03-07T11:31:41.203Z,54.50
2018-03-07T11:34:10.102Z,55.10
2018-03-07T11:36:38.284Z,55.80
2018-03-07T11:39:06.151Z,56.10
2018-03-07T11:41:34.222Z,55.30
2018-03-07T11:44:03.665Z,55.20
2018-03-07T11:46:32.458Z,56.30
2018-03-07T11:49:01.500Z,56.30
2018-03-07T12:00:06.639Z,56.90
2018-03-07T12:02:47.128Z,58.40
2018-03-07T12:08:27.103Z,57.90
2018-03-07T12:11:29.898Z,58.60
2018-03-07T12:14:00.397Z,58.80
2018-03-07T12:16:29.475Z,57.50
2018-03-07T12:18:57.504Z,56.80
2018-03-07T12:21:25.304Z,57.50
2018-03-07T12:23:58.425Z,55.80
2018-03-07T12:26:27.503Z,55.70
2018-03-07T12:28:55.461Z,56.70
2018-03-07T12:31:24.070Z,57.80
2018-03-07T12:33:51.867Z,57.80
2018-03-07T12:36:20.447Z,58.40
2018-03-07T12:38:48.179Z,58.40
2018-03-07T12:41:15.912Z,58.20
2018-03-07T12:43:43.703Z,59.00
2018-03-07T12:46:11.673Z,59.60
2018-03-07T12:48:52.475Z,60.30
2018-03-07T12:51:20.176Z,59.80
2018-03-07T12:53:48.029Z,59.20
2018-03-07T12:56:20.852Z,60.10
2018-03-07T12:58:52.867Z,61.40
2018-03-07T13:01:20.594Z,61.40
2018-03-07T13:03:49.488Z,60.60
2018-03-07T13:06:22.275Z,60.70
2018-03-07T13:08:50.120Z,60.20
2018-03-07T13:11:18.020Z,58.80
2018-03-07T13:13:45.945Z,59.00
2018-03-07T13:16:14.361Z,59.20
2018-03-07T13:18:42.407Z,58.70
2018-03-07T13:21:17.360Z,59.20
2018-03-07T13:23:46.486Z,59.10
2018-03-07T13:26:15.193Z,60.10
2018-03-07T13:28:42.954Z,60.00
2018-03-07T13:31:11.100Z,61.20
2018-03-07T13:33:46.056Z,61.30
2018-03-07T13:36:15.911Z,62.00
2018-03-07T13:38:45.938Z,63.10
2018-03-07T13:41:14.552Z,64.80
2018-03-07T13:43:43.992Z,67.30
2018-03-07T13:46:16.453Z,67.10
2018-03-07T13:48:46.544Z,67.40
2018-03-07T13:51:15.049Z,69.30
2018-03-07T13:53:42.824Z,67.70
2018-03-07T13:56:10.556Z,66.80
2018-03-07T13:58:40.495Z,66.30
2018-03-07T14:01:08.439Z,68.50
2018-03-07T14:03:36.262Z,65.70
2018-03-07T14:06:05.906Z,65.30
2018-03-07T14:08:38.623Z,65.70
2018-03-07T14:11:07.752Z,64.40
2018-03-07T14:13:35.662Z,64.60
2018-03-07T14:18:44.833Z,63.00
2018-03-07T14:21:19.456Z,64.10
2018-03-07T14:23:49.752Z,61.80
2018-03-07T14:26:17.749Z,60.20
2018-03-07T14:28:45.674Z,60.30
2018-03-07T14:34:16.096Z,57.00
2018-03-07T14:36:44.483Z,56.80
2018-03-07T14:39:12.103Z,56.80
2018-03-07T14:41:40.536Z,57.00
2018-03-07T14:44:08.176Z,56.60
2018-03-07T14:46:36.564Z,56.40
2018-03-07T14:49:04.956Z,58.00
2018-03-07T14:51:33.384Z,59.00
2018-03-07T14:54:15.018Z,59.00
2018-03-07T14:56:42.649Z,58.90
2018-03-07T14:59:10.260Z,58.90
2018-03-07T15:01:38.653Z,61.30
2018-03-07T15:04:14.437Z,61.20
2018-03-07T15:06:42.064Z,60.00
2018-03-07T15:09:09.692Z,60.30
2018-03-07T15:11:37.312Z,61.40
2018-03-07T15:14:05.212Z,60.80
2018-03-07T15:16:32.832Z,61.20
2018-03-07T15:19:00.452Z,62.20
2018-03-07T15:21:28.109Z,63.40
2018-03-07T15:23:55.729Z,62.80
2018-03-07T15:26:24.119Z,63.00
2018-03-07T15:28:52.496Z,63.00
2018-03-07T15:31:21.873Z,63.80
2018-03-07T15:33:49.484Z,63.70
2018-03-07T15:36:17.108Z,64.10
2018-03-07T15:38:44.723Z,63.80
2018-03-07T15:41:12.341Z,64.20
2018-03-07T15:43:39.973Z,64.70
2018-03-07T15:46:07.609Z,63.60
2018-03-07T15:48:36.149Z,63.80
2018-03-07T15:51:05.274Z,64.50
2018-03-07T15:53:33.350Z,64.50
2018-03-07T15:56:01.781Z,65.20
2018-03-07T15:58:29.391Z,65.10
2018-03-07T16:00:57.002Z,63.30
2018-03-07T16:03:24.612Z,63.30
2018-03-07T16:05:52.223Z,63.40
2018-03-07T16:08:20.129Z,62.90
2018-03-07T16:10:47.757Z,64.00
2018-03-07T16:13:15.366Z,64.10
2018-03-07T16:15:42.975Z,63.10
2018-03-07T16:18:10.967Z,64.50
2018-03-07T16:20:38.588Z,64.00
2018-03-07T16:23:06.206Z,64.00
2018-03-07T16:25:33.811Z,63.10
2018-03-07T16:28:01.427Z,63.70
2018-03-07T16:30:29.051Z,63.30
2018-03-07T16:32:58.184Z,63.90
2018-03-07T16:35:25.797Z,63.90
2018-03-07T16:37:53.430Z,63.60
2018-03-07T16:40:21.046Z,63.20
2018-03-07T16:42:48.829Z,63.60
2018-03-07T16:45:16.429Z,63.50
2018-03-07T16:47:44.076Z,63.60
2018-03-07T16:50:12.457Z,64.00
2018-03-07T16:52:41.228Z,64.50
2018-03-07T16:55:08.849Z,64.50
2018-03-07T16:57:36.457Z,64.50
2018-03-07T17:00:04.097Z,65.60
2018-03-07T17:02:31.712Z,65.00
2018-03-07T17:05:00.097Z,65.90
2018-03-07T17:07:28.546Z,65.50
2018-03-07T17:09:56.152Z,65.40
2018-03-07T17:12:23.770Z,66.70
2018-03-07T17:14:52.977Z,68.30
2018-03-07T17:17:20.588Z,67.00
2018-03-07T17:19:48.217Z,67.00
2018-03-07T17:22:15.845Z,67.90
2018-03-07T17:24:43.467Z,68.30
2018-03-07T17:27:11.076Z,68.60
2018-03-07T17:29:38.684Z,67.60
2018-03-07T17:32:06.314Z,69.40
2018-03-07T17:34:33.992Z,68.20
2018-03-07T17:37:02.334Z,68.80
2018-03-07T17:39:29.953Z,68.80
2018-03-07T17:41:57.561Z,67.70
2018-03-07T17:44:25.173Z,69.20
2018-03-07T17:46:52.806Z,68.40
2018-03-07T17:49:20.409Z,68.00
2018-03-07T17:51:48.056Z,67.70
2018-03-07T17:54:15.650Z,67.70
2018-03-07T17:56:43.253Z,66.80
2018-03-07T17:59:11.661Z,67.40
2018-03-07T18:01:39.278Z,67.40
2018-03-07T18:04:06.899Z,67.10
2018-03-07T18:06:34.515Z,66.90
2018-03-07T18:09:02.941Z,67.30
2018-03-07T18:11:30.500Z,67.30
2018-03-07T18:13:58.122Z,67.30
2018-03-07T18:16:25.761Z,67.70
2018-03-07T18:18:53.379Z,67.70
2018-03-07T18:21:21.765Z,68.50
2018-03-07T18:23:49.374Z,68.60
2018-03-07T18:26:17.004Z,67.40
2018-03-07T18:28:44.615Z,68.80
2018-03-07T18:31:12.237Z,68.10
2018-03-07T18:33:39.858Z,67.90
2018-03-07T18:36:07.473Z,68.20
2018-03-07T18:38:35.083Z,68.70
2018-03-07T18:41:02.704Z,69.70
2018-03-07T18:43:30.329Z,68.60
2018-03-07T18:45:57.941Z,67.50
2018-03-07T18:48:25.564Z,68.10
2018-03-07T18:50:53.195Z,67.10
2018-03-07T18:53:20.800Z,67.00
2018-03-07T18:55:48.416Z,67.40
2018-03-07T18:58:16.032Z,68.30
2018-03-07T19:00:44.405Z,67.60
2018-03-07T19:03:12.789Z,67.10
2018-03-07T19:05:40.408Z,67.10
2018-03-07T19:08:08.028Z,67.30
2018-03-07T19:10:35.643Z,68.20
2018-03-07T19:13:03.263Z,68.90
2018-03-07T19:15:31.645Z,68.90
2018-03-07T19:18:00.026Z,68.80
2018-03-07T19:20:28.420Z,70.10
2018-03-07T19:22:56.028Z,69.00
2018-03-07T19:25:23.641Z,69.10
2018-03-07T19:27:52.088Z,70.20
2018-03-07T19:30:19.706Z,70.10
2018-03-07T19:32:48.100Z,71.90
2018-03-07T19:35:15.724Z,71.80
2018-03-07T19:37:43.341Z,73.40
2018-03-07T19:40:10.960Z,73.20
2018-03-07T19:42:38.576Z,73.00
2018-03-07T19:45:06.198Z,73.60
2018-03-07T19:47:33.833Z,74.30
2018-03-07T19:50:01.438Z,74.60
2018-03-07T19:52:29.834Z,74.10
2018-03-07T19:54:57.460Z,74.10
2018-03-07T19:57:25.082Z,73.90
2018-03-07T19:59:52.688Z,74.00
2018-03-07T20:02:20.313Z,73.80
2018-03-07T20:04:47.920Z,74.20
2018-03-07T20:07:15.549Z,74.60
2018-03-07T20:09:43.169Z,74.60
2018-03-07T20:12:10.856Z,75.50
2018-03-07T20:14:38.409Z,75.20
2018-03-07T20:17:06.013Z,76.30
2018-03-07T20:19:33.633Z,76.30
2018-03-07T20:22:01.261Z,77.50
2018-03-07T20:24:28.879Z,77.90
2018-03-07T20:26:57.270Z,78.70
2018-03-07T20:29:24.882Z,78.60
2018-03-07T20:31:52.524Z,78.10
2018-03-07T20:34:20.159Z,79.50
2018-03-07T20:36:48.556Z,79.20
2018-03-07T20:39:16.179Z,79.20
2018-03-07T20:41:44.160Z,79.80
2018-03-07T20:44:11.823Z,80.90
2018-03-07T20:46:39.411Z,79.90
2018-03-07T20:49:07.031Z,80.30
2018-03-07T20:51:35.057Z,81.70
2018-03-07T20:54:03.455Z,80.60
2018-03-07T20:56:31.085Z,80.60
2018-03-07T20:58:58.719Z,80.60
2018-03-07T21:01:27.101Z,82.00
2018-03-07T21:03:54.753Z,81.20
2018-03-07T21:06:22.386Z,82.30
2018-03-07T21:08:50.780Z,82.90
2018-03-07T21:11:18.427Z,82.90
2018-03-07T21:13:46.038Z,84.20
2018-03-07T21:16:13.677Z,84.30
2018-03-07T21:18:41.300Z,85.20
2018-03-07T21:21:08.944Z,85.10
2018-03-07T21:23:36.582Z,84.90
2018-03-07T21:26:04.195Z,85.10
2018-03-07T21:28:31.820Z,85.60
2018-03-07T21:30:59.440Z,86.40
2018-03-07T21:33:27.068Z,85.90
2018-03-07T21:35:54.683Z,86.00
2018-03-07T21:38:22.321Z,85.80
2018-03-07T21:40:49.940Z,86.50
2018-03-07T21:43:17.552Z,86.50
2018-03-07T21:45:45.177Z,86.70
2018-03-07T21:48:12.816Z,86.80
2018-03-07T21:50:41.238Z,87.50
2018-03-07T21:53:08.866Z,87.30
2018-03-07T21:55:37.273Z,88.40
2018-03-07T21:58:04.893Z,88.40
2018-03-07T22:00:32.796Z,88.30
2018-03-07T22:03:01.184Z,87.90
2018-03-07T22:05:29.568Z,88.90
2018-03-07T22:07:57.216Z,88.80
2018-03-07T22:10:33.448Z,89.10
2018-03-07T22:13:01.364Z,89.70
2018-03-07T22:15:28.983Z,90.00
2018-03-07T22:17:56.617Z,89.20
2018-03-07T22:20:24.229Z,88.90
2018-03-07T22:22:51.851Z,88.30
2018-03-07T22:25:19.781Z,88.20
2018-03-07T22:27:47.408Z,87.80
2018-03-07T22:30:15.039Z,88.00
2018-03-07T22:32:42.660Z,87.80
2018-03-07T22:35:10.284Z,87.80
2018-03-07T22:37:37.917Z,88.10
2018-03-07T22:40:06.495Z,87.30
2018-03-07T22:42:34.129Z,87.50
2018-03-07T22:45:01.764Z,88.20
2018-03-07T22:47:29.377Z,86.80
2018-03-07T22:49:57.005Z,87.30
2018-03-07T22:52:25.070Z,87.70
2018-03-07T22:54:53.464Z,87.90
2018-03-07T22:57:21.088Z,87.80
2018-03-07T23:02:23.210Z,87.50
2018-03-07T23:04:51.109Z,87.90
2018-03-07T23:07:18.707Z,88.80
2018-03-07T23:09:46.330Z,88.20
2018-03-07T23:12:13.946Z,88.30
2018-03-07T23:14:41.578Z,88.40
2018-03-07T23:17:09.321Z,88.50
2018-03-07T23:19:36.940Z,88.30
2018-03-07T23:22:04.580Z,88.30
2018-03-07T23:24:32.193Z,88.80
2018-03-07T23:27:00.666Z,89.30
2018-03-07T23:29:28.312Z,89.30
2018-03-07T23:31:55.932Z,88.80
2018-03-07T23:34:23.554Z,88.30
2018-03-07T23:36:51.468Z,88.70
2018-03-07T23:39:19.100Z,89.10
2018-03-07T23:41:46.725Z,89.60
2018-03-07T23:44:14.364Z,88.60
2018-03-07T23:46:41.972Z,89.30
2018-03-07T23:49:09.597Z,88.90
2018-03-07T23:51:37.220Z,89.50
2018-03-07T23:54:04.841Z,89.60
2018-03-07T23:56:32.461Z,89.10
2018-03-07T23:59:00.102Z,89.60
